map of ISA home
ISA - Airport
Location
City:  Mount Isa, Queensland, Australia
ICAO:YBMA
IATA:ISA

Details
Type:Airport (Aerodrome, Airfield)
Latitude:20°39'50"S (-20.663888)
Longitude:139°29'19"E (139.488611)
Datum:WGS 1984
Elevation:1121 ft (342 m)
Variation:5.64°E (WMM2015 magnetic declination)
-0.05° annual change
Runways:2
Longest:8399 × 148 ft (2560 × 45 m), paved

Time
Time Zone:UTC+10
Local Time:

Weather
METAR:YBMA 132200Z AUTO 18013KT 9999 // OVC045 26/01 Q1009 RF00.0/000.0
TAF:YBMA 131835Z 1318/1406 18012KT CAVOK

Related Locations
Nearby:
Farthest:NTO: 11411 mi / 18364 km
Ponta do Sol [Agostinho Neto], Ribeira Grande, Santo Antão, CV

Find:

   beyond  
but within

Other Information
Maps:
NOTAMs:
Links:
Sources:

  
  • flag of Australia
  • flag of Queensland
  

Sectional Chart

Flight Planning
at skyvector.com

Satellite Image

Google Maps Satellite view

 

Copyright © 2004-2018 Karl L. Swartz. All rights reserved.
The Great Circle Mapper name and logo are trademarks of the Great Circle Mapper.
All other trademarks mentioned herein belong to their respective owners.
Please see credits for attibutions and further copyright information.

  Follow gcmap on Facebook Follow gcmap on Twitter Follow gcmap on Google+ GCmap on LinkedIn

hCard Microformat

Geo Microformat